sensor_id;sensor_type;location;lat;lon;timestamp;temperature;humidity
24402;DHT22;12539;48.808;11.292;2023-06-22T00:01:51;20.00;99.90
24402;DHT22;12539;48.808;11.292;2023-06-22T00:04:16;20.00;99.90
24402;DHT22;12539;48.808;11.292;2023-06-22T00:06:42;20.00;99.90
24402;DHT22;12539;48.808;11.292;2023-06-22T00:09:07;20.00;99.90
24402;DHT22;12539;48.808;11.292;2023-06-22T00:11:33;20.00;99.90
24402;DHT22;12539;48.808;11.292;2023-06-22T00:13:59;20.00;99.90
24402;DHT22;12539;48.808;11.292;2023-06-22T00:16:25;20.00;99.90
24402;DHT22;12539;48.808;11.292;2023-06-22T00:18:50;20.00;99.90
24402;DHT22;12539;48.808;11.292;2023-06-22T00:21:16;20.00;99.90
24402;DHT22;12539;48.808;11.292;2023-06-22T00:23:41;20.00;99.90
24402;DHT22;12539;48.808;11.292;2023-06-22T00:26:08;20.00;99.90
24402;DHT22;12539;48.808;11.292;2023-06-22T00:28:34;20.00;99.90
24402;DHT22;12539;48.808;11.292;2023-06-22T00:30:59;20.00;99.90
24402;DHT22;12539;48.808;11.292;2023-06-22T00:33:26;20.00;99.90
24402;DHT22;12539;48.808;11.292;2023-06-22T00:35:51;20.00;99.90
24402;DHT22;12539;48.808;11.292;2023-06-22T00:38:19;19.90;99.90
24402;DHT22;12539;48.808;11.292;2023-06-22T00:40:44;19.90;99.90
24402;DHT22;12539;48.808;11.292;2023-06-22T00:43:10;19.90;99.90
24402;DHT22;12539;48.808;11.292;2023-06-22T00:45:35;19.80;99.90
24402;DHT22;12539;48.808;11.292;2023-06-22T00:48:01;19.80;99.90
24402;DHT22;12539;48.808;11.292;2023-06-22T00:50:29;19.80;99.90
24402;DHT22;12539;48.808;11.292;2023-06-22T00:52:59;19.80;99.90
24402;DHT22;12539;48.808;11.292;2023-06-22T00:55:25;19.70;99.90
24402;DHT22;12539;48.808;11.292;2023-06-22T00:57:51;19.70;99.90
24402;DHT22;12539;48.808;11.292;2023-06-22T01:00:22;19.70;99.90
24402;DHT22;12539;48.808;11.292;2023-06-22T01:02:50;19.70;99.90
24402;DHT22;12539;48.808;11.292;2023-06-22T01:05:20;19.80;99.90
24402;DHT22;12539;48.808;11.292;2023-06-22T01:12:44;19.90;99.90
24402;DHT22;12539;48.808;11.292;2023-06-22T01:15:11;19.90;99.90
24402;DHT22;12539;48.808;11.292;2023-06-22T01:17:39;19.90;99.90
24402;DHT22;12539;48.808;11.292;2023-06-22T01:20:06;20.00;99.90
24402;DHT22;12539;48.808;11.292;2023-06-22T01:22:36;20.00;99.90
24402;DHT22;12539;48.808;11.292;2023-06-22T01:25:21;20.00;99.90
24402;DHT22;12539;48.808;11.292;2023-06-22T01:30:34;20.10;99.90
24402;DHT22;12539;48.808;11.292;2023-06-22T01:33:00;20.10;99.90
24402;DHT22;12539;48.808;11.292;2023-06-22T01:35:27;20.10;99.90
24402;DHT22;12539;48.808;11.292;2023-06-22T01:37:52;20.10;99.90
24402;DHT22;12539;48.808;11.292;2023-06-22T01:40:18;20.10;99.90
24402;DHT22;12539;48.808;11.292;2023-06-22T01:42:45;20.10;99.90
24402;DHT22;12539;48.808;11.292;2023-06-22T01:45:11;20.10;99.90
24402;DHT22;12539;48.808;11.292;2023-06-22T01:47:37;20.10;99.90
24402;DHT22;12539;48.808;11.292;2023-06-22T01:50:03;20.10;99.90
24402;DHT22;12539;48.808;11.292;2023-06-22T01:52:29;20.10;99.90
24402;DHT22;12539;48.808;11.292;2023-06-22T01:54:54;20.10;99.90
24402;DHT22;12539;48.808;11.292;2023-06-22T01:57:20;20.20;99.90
24402;DHT22;12539;48.808;11.292;2023-06-22T02:02:11;20.20;99.90
24402;DHT22;12539;48.808;11.292;2023-06-22T02:05:01;20.20;99.90
24402;DHT22;12539;48.808;11.292;2023-06-22T02:07:26;20.10;99.90
24402;DHT22;12539;48.808;11.292;2023-06-22T02:09:52;20.10;99.90
24402;DHT22;12539;48.808;11.292;2023-06-22T02:12:21;20.20;99.90
24402;DHT22;12539;48.808;11.292;2023-06-22T02:14:47;20.20;99.90
24402;DHT22;12539;48.808;11.292;2023-06-22T02:17:13;20.20;99.90
24402;DHT22;12539;48.808;11.292;2023-06-22T02:19:42;20.20;99.90
24402;DHT22;12539;48.808;11.292;2023-06-22T02:22:07;20.20;99.90
24402;DHT22;12539;48.808;11.292;2023-06-22T02:24:33;20.10;99.90
24402;DHT22;12539;48.808;11.292;2023-06-22T02:26:59;20.10;99.90
24402;DHT22;12539;48.808;11.292;2023-06-22T02:29:25;20.10;99.90
24402;DHT22;12539;48.808;11.292;2023-06-22T02:31:52;20.10;99.90
24402;DHT22;12539;48.808;11.292;2023-06-22T02:34:17;20.10;99.90
24402;DHT22;12539;48.808;11.292;2023-06-22T02:36:44;20.10;99.90
24402;DHT22;12539;48.808;11.292;2023-06-22T02:39:17;20.10;99.90
24402;DHT22;12539;48.808;11.292;2023-06-22T02:41:42;20.10;99.90
24402;DHT22;12539;48.808;11.292;2023-06-22T02:44:08;20.10;99.90
24402;DHT22;12539;48.808;11.292;2023-06-22T02:46:33;20.10;99.90
24402;DHT22;12539;48.808;11.292;2023-06-22T02:48:59;20.10;99.90
24402;DHT22;12539;48.808;11.292;2023-06-22T02:51:24;20.10;99.90
24402;DHT22;12539;48.808;11.292;2023-06-22T02:53:50;20.10;99.90
24402;DHT22;12539;48.808;11.292;2023-06-22T02:56:22;20.10;99.90
24402;DHT22;12539;48.808;11.292;2023-06-22T02:58:50;20.10;99.90
24402;DHT22;12539;48.808;11.292;2023-06-22T03:01:16;20.10;99.90
24402;DHT22;12539;48.808;11.292;2023-06-22T03:03:41;20.00;99.90
24402;DHT22;12539;48.808;11.292;2023-06-22T03:06:07;20.00;99.90
24402;DHT22;12539;48.808;11.292;2023-06-22T03:08:33;20.00;99.90
24402;DHT22;12539;48.808;11.292;2023-06-22T03:10:58;20.00;99.90
24402;DHT22;12539;48.808;11.292;2023-06-22T03:13:24;20.00;99.90
24402;DHT22;12539;48.808;11.292;2023-06-22T03:15:49;20.00;99.90
24402;DHT22;12539;48.808;11.292;2023-06-22T03:18:15;20.00;99.90
24402;DHT22;12539;48.808;11.292;2023-06-22T03:20:41;20.00;99.90
24402;DHT22;12539;48.808;11.292;2023-06-22T03:23:06;20.00;99.90
24402;DHT22;12539;48.808;11.292;2023-06-22T03:25:32;20.10;99.90
24402;DHT22;12539;48.808;11.292;2023-06-22T03:27:59;20.00;99.90
24402;DHT22;12539;48.808;11.292;2023-06-22T03:30:25;20.00;99.90
24402;DHT22;12539;48.808;11.292;2023-06-22T03:32:51;20.00;99.90
24402;DHT22;12539;48.808;11.292;2023-06-22T03:35:16;20.10;99.90
24402;DHT22;12539;48.808;11.292;2023-06-22T03:37:42;20.10;99.90
24402;DHT22;12539;48.808;11.292;2023-06-22T03:40:08;20.10;99.90
24402;DHT22;12539;48.808;11.292;2023-06-22T03:42:34;20.10;99.90
24402;DHT22;12539;48.808;11.292;2023-06-22T03:45:00;20.20;99.90
24402;DHT22;12539;48.808;11.292;2023-06-22T03:47:26;20.20;99.90
24402;DHT22;12539;48.808;11.292;2023-06-22T03:49:52;20.20;99.90
24402;DHT22;12539;48.808;11.292;2023-06-22T03:52:20;20.20;99.90
24402;DHT22;12539;48.808;11.292;2023-06-22T03:54:47;20.20;99.90
24402;DHT22;12539;48.808;11.292;2023-06-22T03:57:12;20.30;99.90
24402;DHT22;12539;48.808;11.292;2023-06-22T03:59:38;20.30;99.90
24402;DHT22;12539;48.808;11.292;2023-06-22T04:02:03;20.30;99.90
24402;DHT22;12539;48.808;11.292;2023-06-22T04:04:29;20.30;99.90
24402;DHT22;12539;48.808;11.292;2023-06-22T04:06:55;20.40;99.90
24402;DHT22;12539;48.808;11.292;2023-06-22T04:09:20;20.40;99.90
24402;DHT22;12539;48.808;11.292;2023-06-22T04:11:47;20.40;99.90
24402;DHT22;12539;48.808;11.292;2023-06-22T04:14:12;20.50;99.90
24402;DHT22;12539;48.808;11.292;2023-06-22T04:16:38;20.50;99.90
24402;DHT22;12539;48.808;11.292;2023-06-22T04:19:03;20.60;99.90
24402;DHT22;12539;48.808;11.292;2023-06-22T04:21:29;20.60;99.90
24402;DHT22;12539;48.808;11.292;2023-06-22T04:23:54;20.70;99.90
24402;DHT22;12539;48.808;11.292;2023-06-22T04:26:20;20.80;99.90
24402;DHT22;12539;48.808;11.292;2023-06-22T04:28:46;20.90;99.90
24402;DHT22;12539;48.808;11.292;2023-06-22T04:31:17;20.90;99.90
24402;DHT22;12539;48.808;11.292;2023-06-22T04:33:42;20.90;99.90
24402;DHT22;12539;48.808;11.292;2023-06-22T04:36:08;21.00;99.90
24402;DHT22;12539;48.808;11.292;2023-06-22T04:38:33;21.00;99.90
24402;DHT22;12539;48.808;11.292;2023-06-22T04:40:59;21.10;99.90
24402;DHT22;12539;48.808;11.292;2023-06-22T04:43:27;21.20;99.90
24402;DHT22;12539;48.808;11.292;2023-06-22T04:45:56;21.20;99.90
24402;DHT22;12539;48.808;11.292;2023-06-22T04:48:21;21.30;99.90
24402;DHT22;12539;48.808;11.292;2023-06-22T04:50:47;21.50;99.90
24402;DHT22;12539;48.808;11.292;2023-06-22T04:53:13;21.60;99.90
24402;DHT22;12539;48.808;11.292;2023-06-22T04:55:39;21.70;99.90
24402;DHT22;12539;48.808;11.292;2023-06-22T04:58:07;21.90;99.90
24402;DHT22;12539;48.808;11.292;2023-06-22T05:03:17;22.10;99.80
24402;DHT22;12539;48.808;11.292;2023-06-22T05:05:43;22.20;99.60
24402;DHT22;12539;48.808;11.292;2023-06-22T05:08:09;22.30;99.60
24402;DHT22;12539;48.808;11.292;2023-06-22T05:10:35;22.40;99.50
24402;DHT22;12539;48.808;11.292;2023-06-22T05:13:01;22.50;99.30
24402;DHT22;12539;48.808;11.292;2023-06-22T05:15:26;22.50;99.30
24402;DHT22;12539;48.808;11.292;2023-06-22T05:17:55;22.60;99.10
24402;DHT22;12539;48.808;11.292;2023-06-22T05:20:21;22.70;99.10
24402;DHT22;12539;48.808;11.292;2023-06-22T05:22:47;22.70;98.90
24402;DHT22;12539;48.808;11.292;2023-06-22T05:25:12;22.70;98.80
24402;DHT22;12539;48.808;11.292;2023-06-22T05:27:38;22.80;98.60
24402;DHT22;12539;48.808;11.292;2023-06-22T05:30:08;22.80;98.50
24402;DHT22;12539;48.808;11.292;2023-06-22T05:32:34;22.90;98.60
24402;DHT22;12539;48.808;11.292;2023-06-22T05:34:59;23.00;98.50
24402;DHT22;12539;48.808;11.292;2023-06-22T05:37:26;23.10;98.30
24402;DHT22;12539;48.808;11.292;2023-06-22T05:39:52;23.10;98.20
24402;DHT22;12539;48.808;11.292;2023-06-22T05:42:17;23.20;98.10
24402;DHT22;12539;48.808;11.292;2023-06-22T05:44:43;23.30;98.10
24402;DHT22;12539;48.808;11.292;2023-06-22T05:47:08;23.50;98.00
24402;DHT22;12539;48.808;11.292;2023-06-22T05:49:34;23.70;97.90
24402;DHT22;12539;48.808;11.292;2023-06-22T05:52:00;24.00;97.70
24402;DHT22;12539;48.808;11.292;2023-06-22T05:54:27;24.60;97.50
24402;DHT22;12539;48.808;11.292;2023-06-22T05:56:52;25.50;96.10
24402;DHT22;12539;48.808;11.292;2023-06-22T05:59:18;26.70;93.30
24402;DHT22;12539;48.808;11.292;2023-06-22T06:01:44;28.00;90.70
24402;DHT22;12539;48.808;11.292;2023-06-22T06:04:09;29.10;84.60
24402;DHT22;12539;48.808;11.292;2023-06-22T06:06:35;30.10;77.60
24402;DHT22;12539;48.808;11.292;2023-06-22T06:09:05;31.00;74.00
24402;DHT22;12539;48.808;11.292;2023-06-22T06:11:30;31.80;68.10
24402;DHT22;12539;48.808;11.292;2023-06-22T06:13:56;32.30;62.40
24402;DHT22;12539;48.808;11.292;2023-06-22T06:16:22;32.70;61.10
24402;DHT22;12539;48.808;11.292;2023-06-22T06:18:48;33.20;58.50
24402;DHT22;12539;48.808;11.292;2023-06-22T06:21:18;33.60;56.50
24402;DHT22;12539;48.808;11.292;2023-06-22T06:23:44;34.10;55.80
24402;DHT22;12539;48.808;11.292;2023-06-22T06:26:09;34.40;52.90
24402;DHT22;12539;48.808;11.292;2023-06-22T06:28:35;34.70;51.40
24402;DHT22;12539;48.808;11.292;2023-06-22T06:31:03;34.80;49.50
24402;DHT22;12539;48.808;11.292;2023-06-22T06:33:32;35.10;49.60
24402;DHT22;12539;48.808;11.292;2023-06-22T06:35:58;35.40;48.70
24402;DHT22;12539;48.808;11.292;2023-06-22T06:38:23;35.70;48.20
24402;DHT22;12539;48.808;11.292;2023-06-22T06:40:49;36.10;47.60
24402;DHT22;12539;48.808;11.292;2023-06-22T06:43:14;36.50;46.80
24402;DHT22;12539;48.808;11.292;2023-06-22T06:45:40;36.70;45.40
24402;DHT22;12539;48.808;11.292;2023-06-22T06:48:05;36.80;45.20
24402;DHT22;12539;48.808;11.292;2023-06-22T06:50:31;37.00;44.20
24402;DHT22;12539;48.808;11.292;2023-06-22T06:52:56;37.00;43.20
24402;DHT22;12539;48.808;11.292;2023-06-22T06:55:24;36.90;42.60
24402;DHT22;12539;48.808;11.292;2023-06-22T06:57:50;37.00;42.70
24402;DHT22;12539;48.808;11.292;2023-06-22T07:00:18;37.10;42.70
24402;DHT22;12539;48.808;11.292;2023-06-22T07:02:44;37.30;41.40
24402;DHT22;12539;48.808;11.292;2023-06-22T07:05:11;37.40;40.80
24402;DHT22;12539;48.808;11.292;2023-06-22T07:07:37;37.50;40.90
24402;DHT22;12539;48.808;11.292;2023-06-22T07:10:02;37.50;40.00
24402;DHT22;12539;48.808;11.292;2023-06-22T07:12:28;37.50;40.00
24402;DHT22;12539;48.808;11.292;2023-06-22T07:14:54;37.30;39.80
24402;DHT22;12539;48.808;11.292;2023-06-22T07:17:19;36.90;40.20
24402;DHT22;12539;48.808;11.292;2023-06-22T07:19:45;36.20;41.90
24402;DHT22;12539;48.808;11.292;2023-06-22T07:22:10;35.00;43.20
24402;DHT22;12539;48.808;11.292;2023-06-22T07:24:36;33.40;45.90
24402;DHT22;12539;48.808;11.292;2023-06-22T07:27:02;32.00;48.60
24402;DHT22;12539;48.808;11.292;2023-06-22T07:29:29;31.10;50.90
24402;DHT22;12539;48.808;11.292;2023-06-22T07:31:54;30.30;52.50
24402;DHT22;12539;48.808;11.292;2023-06-22T07:34:21;29.80;54.20
24402;DHT22;12539;48.808;11.292;2023-06-22T07:36:47;29.40;55.40
24402;DHT22;12539;48.808;11.292;2023-06-22T07:39:13;29.10;56.60
24402;DHT22;12539;48.808;11.292;2023-06-22T07:41:38;28.90;56.90
24402;DHT22;12539;48.808;11.292;2023-06-22T07:44:04;28.70;57.80
24402;DHT22;12539;48.808;11.292;2023-06-22T07:46:31;28.50;58.30
24402;DHT22;12539;48.808;11.292;2023-06-22T07:48:57;28.40;58.50
24402;DHT22;12539;48.808;11.292;2023-06-22T07:51:23;28.30;59.40
24402;DHT22;12539;48.808;11.292;2023-06-22T07:53:49;28.20;59.70
24402;DHT22;12539;48.808;11.292;2023-06-22T07:56:14;28.20;59.80
24402;DHT22;12539;48.808;11.292;2023-06-22T07:58:44;28.10;59.90
24402;DHT22;12539;48.808;11.292;2023-06-22T08:01:10;28.10;59.60
24402;DHT22;12539;48.808;11.292;2023-06-22T08:03:36;28.00;60.20
24402;DHT22;12539;48.808;11.292;2023-06-22T08:06:01;28.00;60.50
24402;DHT22;12539;48.808;11.292;2023-06-22T08:08:27;28.00;60.40
24402;DHT22;12539;48.808;11.292;2023-06-22T08:10:52;27.90;60.80
24402;DHT22;12539;48.808;11.292;2023-06-22T08:13:18;27.90;61.20
24402;DHT22;12539;48.808;11.292;2023-06-22T08:15:44;28.00;61.40
24402;DHT22;12539;48.808;11.292;2023-06-22T08:18:10;27.90;61.30
24402;DHT22;12539;48.808;11.292;2023-06-22T08:20:35;27.90;61.60
24402;DHT22;12539;48.808;11.292;2023-06-22T08:23:01;27.90;61.80
24402;DHT22;12539;48.808;11.292;2023-06-22T08:25:32;27.90;61.90
24402;DHT22;12539;48.808;11.292;2023-06-22T08:27:58;27.90;61.80
24402;DHT22;12539;48.808;11.292;2023-06-22T08:30:23;27.90;62.20
24402;DHT22;12539;48.808;11.292;2023-06-22T08:32:49;27.90;62.20
24402;DHT22;12539;48.808;11.292;2023-06-22T08:35:14;28.00;62.60
24402;DHT22;12539;48.808;11.292;2023-06-22T08:37:40;28.00;62.30
24402;DHT22;12539;48.808;11.292;2023-06-22T08:40:07;28.00;62.10
24402;DHT22;12539;48.808;11.292;2023-06-22T08:42:33;28.00;62.20
24402;DHT22;12539;48.808;11.292;2023-06-22T08:44:59;28.00;62.40
24402;DHT22;12539;48.808;11.292;2023-06-22T08:47:24;28.00;62.20
24402;DHT22;12539;48.808;11.292;2023-06-22T08:49:50;28.00;62.50
24402;DHT22;12539;48.808;11.292;2023-06-22T08:52:17;28.00;62.40
24402;DHT22;12539;48.808;11.292;2023-06-22T08:54:42;28.00;62.70
24402;DHT22;12539;48.808;11.292;2023-06-22T08:57:08;28.00;62.60
24402;DHT22;12539;48.808;11.292;2023-06-22T08:59:36;28.10;62.40
24402;DHT22;12539;48.808;11.292;2023-06-22T09:02:01;28.10;62.20
24402;DHT22;12539;48.808;11.292;2023-06-22T09:04:27;28.10;62.30
24402;DHT22;12539;48.808;11.292;2023-06-22T09:06:52;28.20;62.00
24402;DHT22;12539;48.808;11.292;2023-06-22T09:09:18;28.20;61.80
24402;DHT22;12539;48.808;11.292;2023-06-22T09:11:44;28.30;61.90
24402;DHT22;12539;48.808;11.292;2023-06-22T09:14:10;28.30;61.80
24402;DHT22;12539;48.808;11.292;2023-06-22T09:16:36;28.30;61.60
24402;DHT22;12539;48.808;11.292;2023-06-22T09:19:01;28.40;61.80
24402;DHT22;12539;48.808;11.292;2023-06-22T09:21:27;28.40;61.90
24402;DHT22;12539;48.808;11.292;2023-06-22T09:23:52;28.40;61.30
24402;DHT22;12539;48.808;11.292;2023-06-22T09:26:18;28.40;61.70
24402;DHT22;12539;48.808;11.292;2023-06-22T09:28:44;28.40;61.50
24402;DHT22;12539;48.808;11.292;2023-06-22T09:31:09;28.40;61.70
24402;DHT22;12539;48.808;11.292;2023-06-22T09:33:35;28.40;62.00
24402;DHT22;12539;48.808;11.292;2023-06-22T09:36:01;28.40;61.70
24402;DHT22;12539;48.808;11.292;2023-06-22T09:38:27;28.40;61.30
24402;DHT22;12539;48.808;11.292;2023-06-22T09:40:52;28.40;61.40
24402;DHT22;12539;48.808;11.292;2023-06-22T09:43:18;28.40;61.50
24402;DHT22;12539;48.808;11.292;2023-06-22T09:45:43;28.50;60.80
24402;DHT22;12539;48.808;11.292;2023-06-22T09:48:09;28.50;61.00
24402;DHT22;12539;48.808;11.292;2023-06-22T09:50:35;28.50;60.90
24402;DHT22;12539;48.808;11.292;2023-06-22T09:53:01;28.60;60.10
24402;DHT22;12539;48.808;11.292;2023-06-22T09:55:27;28.70;60.10
24402;DHT22;12539;48.808;11.292;2023-06-22T09:57:52;28.70;59.80
24402;DHT22;12539;48.808;11.292;2023-06-22T10:00:18;28.70;60.00
24402;DHT22;12539;48.808;11.292;2023-06-22T10:02:44;28.80;60.00
24402;DHT22;12539;48.808;11.292;2023-06-22T10:05:10;28.80;60.00
24402;DHT22;12539;48.808;11.292;2023-06-22T10:07:35;28.90;59.80
24402;DHT22;12539;48.808;11.292;2023-06-22T10:10:05;28.90;59.60
24402;DHT22;12539;48.808;11.292;2023-06-22T10:12:31;28.90;59.50
24402;DHT22;12539;48.808;11.292;2023-06-22T10:14:57;29.00;59.20
24402;DHT22;12539;48.808;11.292;2023-06-22T10:20:25;29.10;59.00
24402;DHT22;12539;48.808;11.292;2023-06-22T10:22:51;29.10;58.50
24402;DHT22;12539;48.808;11.292;2023-06-22T10:25:17;29.10;58.70
24402;DHT22;12539;48.808;11.292;2023-06-22T10:27:42;29.10;58.60
24402;DHT22;12539;48.808;11.292;2023-06-22T10:32:54;29.20;58.70
24402;DHT22;12539;48.808;11.292;2023-06-22T10:35:19;29.30;58.90
24402;DHT22;12539;48.808;11.292;2023-06-22T10:37:45;29.20;58.40
24402;DHT22;12539;48.808;11.292;2023-06-22T10:40:20;29.30;58.60
24402;DHT22;12539;48.808;11.292;2023-06-22T10:42:46;29.30;58.80
24402;DHT22;12539;48.808;11.292;2023-06-22T10:45:12;29.50;58.40
24402;DHT22;12539;48.808;11.292;2023-06-22T10:47:37;29.50;57.90
24402;DHT22;12539;48.808;11.292;2023-06-22T10:50:03;29.60;58.00
24402;DHT22;12539;48.808;11.292;2023-06-22T10:52:29;29.60;57.80
24402;DHT22;12539;48.808;11.292;2023-06-22T10:54:55;29.70;57.20
24402;DHT22;12539;48.808;11.292;2023-06-22T10:57:21;29.80;56.70
24402;DHT22;12539;48.808;11.292;2023-06-22T10:59:47;29.90;56.80
24402;DHT22;12539;48.808;11.292;2023-06-22T11:02:12;30.00;56.60
24402;DHT22;12539;48.808;11.292;2023-06-22T11:04:38;30.00;56.20
24402;DHT22;12539;48.808;11.292;2023-06-22T11:07:03;30.10;56.20
24402;DHT22;12539;48.808;11.292;2023-06-22T11:09:29;30.10;56.30
24402;DHT22;12539;48.808;11.292;2023-06-22T11:11:55;30.10;56.10
24402;DHT22;12539;48.808;11.292;2023-06-22T11:14:21;30.10;55.60
24402;DHT22;12539;48.808;11.292;2023-06-22T11:16:47;30.10;55.40
24402;DHT22;12539;48.808;11.292;2023-06-22T11:19:13;30.10;55.60
24402;DHT22;12539;48.808;11.292;2023-06-22T11:21:38;30.10;55.70
24402;DHT22;12539;48.808;11.292;2023-06-22T11:24:04;30.10;55.70
24402;DHT22;12539;48.808;11.292;2023-06-22T11:26:30;30.10;55.80
24402;DHT22;12539;48.808;11.292;2023-06-22T11:28:57;30.10;55.60
24402;DHT22;12539;48.808;11.292;2023-06-22T11:31:22;30.10;55.70
24402;DHT22;12539;48.808;11.292;2023-06-22T11:33:48;30.10;56.00
24402;DHT22;12539;48.808;11.292;2023-06-22T11:36:14;30.20;55.20
24402;DHT22;12539;48.808;11.292;2023-06-22T11:38:39;30.20;54.90
24402;DHT22;12539;48.808;11.292;2023-06-22T11:41:05;30.20;55.20
24402;DHT22;12539;48.808;11.292;2023-06-22T11:43:31;30.20;55.30
24402;DHT22;12539;48.808;11.292;2023-06-22T11:45:57;30.20;55.50
24402;DHT22;12539;48.808;11.292;2023-06-22T11:48:26;30.20;55.20
24402;DHT22;12539;48.808;11.292;2023-06-22T11:50:51;30.20;55.00
24402;DHT22;12539;48.808;11.292;2023-06-22T11:53:17;30.20;55.70
24402;DHT22;12539;48.808;11.292;2023-06-22T11:55:43;30.20;55.30
24402;DHT22;12539;48.808;11.292;2023-06-22T11:58:09;30.30;54.60
24402;DHT22;12539;48.808;11.292;2023-06-22T12:00:35;30.20;54.40
24402;DHT22;12539;48.808;11.292;2023-06-22T12:03:00;30.20;54.40
24402;DHT22;12539;48.808;11.292;2023-06-22T12:05:26;30.30;54.70
24402;DHT22;12539;48.808;11.292;2023-06-22T12:07:55;30.40;54.80
24402;DHT22;12539;48.808;11.292;2023-06-22T12:10:24;30.40;55.00
24402;DHT22;12539;48.808;11.292;2023-06-22T12:12:50;30.40;54.80
24402;DHT22;12539;48.808;11.292;2023-06-22T12:15:16;30.30;54.10
24402;DHT22;12539;48.808;11.292;2023-06-22T12:17:41;30.30;54.30
24402;DHT22;12539;48.808;11.292;2023-06-22T12:20:07;30.20;54.90
24402;DHT22;12539;48.808;11.292;2023-06-22T12:22:33;30.20;55.10
24402;DHT22;12539;48.808;11.292;2023-06-22T12:24:59;30.30;55.20
24402;DHT22;12539;48.808;11.292;2023-06-22T12:27:25;30.40;55.10
24402;DHT22;12539;48.808;11.292;2023-06-22T12:29:50;30.50;55.20
24402;DHT22;12539;48.808;11.292;2023-06-22T12:32:19;30.60;55.00
24402;DHT22;12539;48.808;11.292;2023-06-22T12:34:44;30.60;55.20
24402;DHT22;12539;48.808;11.292;2023-06-22T12:37:10;30.60;55.30
24402;DHT22;12539;48.808;11.292;2023-06-22T12:39:36;30.70;54.90
24402;DHT22;12539;48.808;11.292;2023-06-22T12:42:01;30.80;54.90
24402;DHT22;12539;48.808;11.292;2023-06-22T12:44:27;30.80;54.70
24402;DHT22;12539;48.808;11.292;2023-06-22T12:46:52;30.90;54.40
24402;DHT22;12539;48.808;11.292;2023-06-22T12:49:18;30.90;54.30
24402;DHT22;12539;48.808;11.292;2023-06-22T12:51:44;30.90;54.90
24402;DHT22;12539;48.808;11.292;2023-06-22T12:54:09;30.90;54.40
24402;DHT22;12539;48.808;11.292;2023-06-22T12:56:35;30.90;52.90
24402;DHT22;12539;48.808;11.292;2023-06-22T12:59:01;30.90;53.10
24402;DHT22;12539;48.808;11.292;2023-06-22T13:01:29;30.90;53.60
24402;DHT22;12539;48.808;11.292;2023-06-22T13:03:56;31.00;53.70
24402;DHT22;12539;48.808;11.292;2023-06-22T13:06:21;31.10;53.70
24402;DHT22;12539;48.808;11.292;2023-06-22T13:08:47;31.10;53.70
24402;DHT22;12539;48.808;11.292;2023-06-22T13:11:12;31.20;53.70
24402;DHT22;12539;48.808;11.292;2023-06-22T13:13:38;31.30;53.40
24402;DHT22;12539;48.808;11.292;2023-06-22T13:16:04;31.30;53.00
24402;DHT22;12539;48.808;11.292;2023-06-22T13:18:29;31.50;52.90
24402;DHT22;12539;48.808;11.292;2023-06-22T13:20:55;31.60;52.90
24402;DHT22;12539;48.808;11.292;2023-06-22T13:23:21;31.80;52.80
24402;DHT22;12539;48.808;11.292;2023-06-22T13:25:47;31.90;52.10
24402;DHT22;12539;48.808;11.292;2023-06-22T13:28:12;32.10;52.10
24402;DHT22;12539;48.808;11.292;2023-06-22T13:30:39;32.20;51.80
24402;DHT22;12539;48.808;11.292;2023-06-22T13:33:05;32.30;51.40
24402;DHT22;12539;48.808;11.292;2023-06-22T13:35:31;32.40;50.90
24402;DHT22;12539;48.808;11.292;2023-06-22T13:37:56;32.40;51.10
24402;DHT22;12539;48.808;11.292;2023-06-22T13:40:22;32.30;51.00
24402;DHT22;12539;48.808;11.292;2023-06-22T13:42:47;32.30;50.60
24402;DHT22;12539;48.808;11.292;2023-06-22T13:47:59;32.00;51.10
24402;DHT22;12539;48.808;11.292;2023-06-22T13:50:24;31.90;51.40
24402;DHT22;12539;48.808;11.292;2023-06-22T13:52:50;31.80;51.30
24402;DHT22;12539;48.808;11.292;2023-06-22T13:55:15;31.70;51.30
24402;DHT22;12539;48.808;11.292;2023-06-22T13:57:41;31.60;51.10
24402;DHT22;12539;48.808;11.292;2023-06-22T14:00:16;31.50;51.50
24402;DHT22;12539;48.808;11.292;2023-06-22T14:02:41;31.50;52.00
24402;DHT22;12539;48.808;11.292;2023-06-22T14:05:07;31.40;51.80
24402;DHT22;12539;48.808;11.292;2023-06-22T14:07:33;31.40;51.90
24402;DHT22;12539;48.808;11.292;2023-06-22T14:09:59;31.40;51.90
24402;DHT22;12539;48.808;11.292;2023-06-22T14:12:25;31.30;52.00
24402;DHT22;12539;48.808;11.292;2023-06-22T14:14:50;31.30;51.90
24402;DHT22;12539;48.808;11.292;2023-06-22T14:17:16;31.30;52.20
24402;DHT22;12539;48.808;11.292;2023-06-22T14:19:42;31.20;51.90
24402;DHT22;12539;48.808;11.292;2023-06-22T14:22:07;31.20;52.00
24402;DHT22;12539;48.808;11.292;2023-06-22T14:24:33;31.20;52.10
24402;DHT22;12539;48.808;11.292;2023-06-22T14:26:58;31.20;52.20
24402;DHT22;12539;48.808;11.292;2023-06-22T14:29:27;31.20;52.10
24402;DHT22;12539;48.808;11.292;2023-06-22T14:31:53;31.20;52.10
24402;DHT22;12539;48.808;11.292;2023-06-22T14:34:18;31.20;52.20
24402;DHT22;12539;48.808;11.292;2023-06-22T14:36:44;31.20;52.30
24402;DHT22;12539;48.808;11.292;2023-06-22T14:39:09;31.20;52.30
24402;DHT22;12539;48.808;11.292;2023-06-22T14:41:35;31.20;52.20
24402;DHT22;12539;48.808;11.292;2023-06-22T14:44:01;31.20;52.40
24402;DHT22;12539;48.808;11.292;2023-06-22T14:46:28;31.20;52.40
24402;DHT22;12539;48.808;11.292;2023-06-22T14:48:53;31.10;52.20
24402;DHT22;12539;48.808;11.292;2023-06-22T14:51:19;31.10;52.30
24402;DHT22;12539;48.808;11.292;2023-06-22T14:53:45;31.10;52.40
24402;DHT22;12539;48.808;11.292;2023-06-22T14:56:11;31.20;52.50
24402;DHT22;12539;48.808;11.292;2023-06-22T14:58:38;31.20;52.40
24402;DHT22;12539;48.808;11.292;2023-06-22T15:01:05;31.20;52.10
24402;DHT22;12539;48.808;11.292;2023-06-22T15:03:34;31.20;52.10
24402;DHT22;12539;48.808;11.292;2023-06-22T15:11:33;31.10;52.00
24402;DHT22;12539;48.808;11.292;2023-06-22T15:13:58;31.10;52.00
24402;DHT22;12539;48.808;11.292;2023-06-22T15:16:25;31.10;52.20
24402;DHT22;12539;48.808;11.292;2023-06-22T15:18:51;31.00;52.10
24402;DHT22;12539;48.808;11.292;2023-06-22T15:21:16;31.00;52.00
24402;DHT22;12539;48.808;11.292;2023-06-22T15:23:42;31.00;52.10
24402;DHT22;12539;48.808;11.292;2023-06-22T15:26:07;31.00;52.20
24402;DHT22;12539;48.808;11.292;2023-06-22T15:28:33;31.00;52.30
24402;DHT22;12539;48.808;11.292;2023-06-22T15:31:00;31.10;52.40
24402;DHT22;12539;48.808;11.292;2023-06-22T15:33:25;31.10;52.40
24402;DHT22;12539;48.808;11.292;2023-06-22T15:35:51;31.20;52.30